Time;durP1;ratioP1;P1;durP2;ratioP2;P2;SDS_P1;SDS_P2;PMS_P1;PMS_P2;Temp;Humidity;BMP_temperature;BMP_pressure;BME280_temperature;BME280_humidity;BME280_pressure;Samples;Min_cycle;Max_cycle;Signal;HPM_P1;HPM_P2
2024/02/15 00:00:12;;;;;;;8.25;3.88;;;12.90;99.90;;;;;;4142398;28;20482;-68
2024/02/15 00:02:12;;;;;;;8.27;4.00;;;12.90;99.90;;;;;;4145979;28;20502;-69
2024/02/15 00:04:13;;;;;;;8.93;4.00;;;12.90;99.90;;;;;;4149353;28;20033;-67
2024/02/15 00:06:14;;;;;;;7.93;3.88;;;12.90;99.90;;;;;;4145282;28;20050;-67
2024/02/15 00:08:15;;;;;;;5.88;3.50;;;12.90;99.90;;;;;;4147227;28;20080;-67
2024/02/15 00:10:15;;;;;;;12.18;3.78;;;12.90;99.90;;;;;;4145534;28;20096;-67
2024/02/15 00:12:16;;;;;;;6.85;3.50;;;12.90;99.90;;;;;;4141974;28;20034;-67
2024/02/15 00:14:17;;;;;;;5.78;3.38;;;12.90;99.90;;;;;;4144256;28;20045;-67
2024/02/15 00:16:17;;;;;;;7.70;4.07;;;12.90;99.90;;;;;;4143638;28;20045;-67
2024/02/15 00:18:18;;;;;;;6.28;3.55;;;12.90;99.90;;;;;;4144855;28;20458;-68
2024/02/15 00:20:20;;;;;;;7.90;4.28;;;12.90;99.90;;;;;;4141795;28;20037;-68
2024/02/15 00:22:21;;;;;;;7.32;3.63;;;12.90;99.90;;;;;;4142324;28;20038;-67
2024/02/15 00:24:22;;;;;;;4.88;3.03;;;12.90;99.90;;;;;;4145187;28;20098;-67
2024/02/15 00:26:22;;;;;;;6.63;3.47;;;12.90;99.90;;;;;;4143465;28;20044;-67
2024/02/15 00:28:24;;;;;;;7.40;3.55;;;12.90;99.90;;;;;;4143172;28;20061;-67
2024/02/15 00:30:24;;;;;;;6.05;3.65;;;12.90;99.90;;;;;;4148703;28;20049;-67
2024/02/15 00:32:25;;;;;;;12.43;3.88;;;12.90;99.90;;;;;;4143421;28;20520;-67
2024/02/15 00:34:26;;;;;;;7.95;3.60;;;12.90;99.90;;;;;;4146966;28;20087;-67
2024/02/15 00:36:27;;;;;;;7.10;3.38;;;13.00;99.90;;;;;;4144644;28;20521;-67
2024/02/15 00:38:28;;;;;;;4.72;3.05;;;12.90;99.90;;;;;;4145840;28;20260;-67
2024/02/15 00:40:28;;;;;;;6.43;3.28;;;13.00;99.90;;;;;;4143241;28;20398;-67
2024/02/15 00:42:31;;;;;;;9.93;3.55;;;13.00;99.90;;;;;;4147420;28;20034;-67
2024/02/15 00:44:32;;;;;;;;;;;13.00;99.90;;;;;;4140250;28;20034;-67
2024/02/15 00:46:32;;;;;;;7.00;3.47;;;13.00;99.90;;;;;;4143375;28;20007;-67
2024/02/15 00:48:33;;;;;;;6.72;3.50;;;13.00;99.90;;;;;;4143585;28;20241;-67
2024/02/15 00:50:33;;;;;;;7.60;3.58;;;13.00;99.90;;;;;;4140742;28;20045;-67
2024/02/15 00:52:34;;;;;;;6.60;3.30;;;13.00;99.90;;;;;;4142097;28;20386;-67
2024/02/15 00:54:35;;;;;;;5.18;3.00;;;13.00;99.90;;;;;;4136820;28;20121;-68
2024/02/15 00:56:35;;;;;;;5.50;3.17;;;13.00;99.90;;;;;;4142110;28;20034;-67
2024/02/15 00:58:36;;;;;;;14.80;4.45;;;13.00;99.90;;;;;;4142602;28;20041;-67
2024/02/15 01:00:38;;;;;;;6.78;4.03;;;13.00;99.90;;;;;;4141333;28;20038;-67
2024/02/15 01:02:38;;;;;;;6.97;3.60;;;13.00;99.90;;;;;;4144018;28;20085;-67
2024/02/15 01:04:39;;;;;;;9.75;3.90;;;13.00;99.90;;;;;;4141855;28;20285;-67
2024/02/15 01:06:41;;;;;;;13.73;3.92;;;13.00;99.90;;;;;;4142660;28;20533;-67
2024/02/15 01:08:42;;;;;;;10.30;4.18;;;13.00;99.90;;;;;;4142374;28;20398;-67
2024/02/15 01:10:42;;;;;;;7.25;3.35;;;13.00;99.90;;;;;;4139188;28;20034;-67
2024/02/15 01:12:44;;;;;;;8.57;3.58;;;13.00;99.90;;;;;;4143344;28;20041;-67
2024/02/15 01:14:44;;;;;;;8.05;4.70;;;13.00;99.90;;;;;;4143058;28;20439;-67
2024/02/15 01:16:46;;;;;;;7.50;3.42;;;13.00;99.90;;;;;;4141074;28;20072;-67
2024/02/15 01:18:46;;;;;;;8.07;4.25;;;13.00;99.90;;;;;;4140892;28;20473;-67
2024/02/15 01:20:47;;;;;;;7.65;4.00;;;13.00;99.90;;;;;;4142373;28;20062;-67
2024/02/15 01:22:47;;;;;;;7.53;3.88;;;13.00;99.90;;;;;;4142209;28;20121;-67
2024/02/15 01:24:48;;;;;;;7.43;3.72;;;13.00;99.90;;;;;;4144536;28;20042;-67
2024/02/15 01:26:49;;;;;;;11.10;3.55;;;13.00;99.90;;;;;;4142818;28;20494;-67
2024/02/15 01:28:49;;;;;;;6.72;3.47;;;13.00;99.90;;;;;;4140862;28;20525;-67
2024/02/15 01:30:50;;;;;;;9.48;3.80;;;13.00;99.90;;;;;;4141030;28;20030;-67
2024/02/15 01:32:51;;;;;;;7.30;3.58;;;13.00;99.90;;;;;;4146329;28;20447;-67
2024/02/15 01:34:54;;;;;;;8.85;4.10;;;13.00;99.90;;;;;;4143147;28;20038;-67
2024/02/15 01:36:54;;;;;;;;;;;13.00;99.90;;;;;;4141959;28;20510;-67
2024/02/15 01:38:55;;;;;;;6.25;3.70;;;13.00;99.90;;;;;;4140745;28;19927;-67
2024/02/15 01:40:55;;;;;;;7.20;4.07;;;13.00;99.90;;;;;;4144316;28;20092;-60
2024/02/15 01:42:58;;;;;;;10.57;3.63;;;13.00;99.90;;;;;;4146440;28;20048;-61
2024/02/15 01:44:58;;;;;;;8.45;4.00;;;13.00;99.90;;;;;;4142154;28;20088;-60
2024/02/15 01:47:00;;;;;;;8.25;4.00;;;13.00;99.90;;;;;;4142848;28;20117;-60
2024/02/15 01:49:01;;;;;;;5.63;3.45;;;13.00;99.90;;;;;;4142783;28;20034;-60
2024/02/15 01:51:03;;;;;;;8.85;4.00;;;13.00;99.90;;;;;;4142439;28;20046;-61
2024/02/15 01:53:08;;;;;;;10.10;4.15;;;13.00;99.90;;;;;;4125430;28;20038;-60
2024/02/15 01:55:08;;;;;;;6.20;3.60;;;13.00;99.90;;;;;;4144427;28;20040;-61
2024/02/15 01:57:09;;;;;;;8.02;3.60;;;13.00;99.90;;;;;;4145417;28;20491;-61
2024/02/15 01:59:14;;;;;;;7.18;3.60;;;12.90;99.90;;;;;;4143887;28;20109;-61
2024/02/15 02:01:16;;;;;;;8.02;3.63;;;12.90;99.90;;;;;;4146891;28;20512;-61
2024/02/15 02:03:16;;;;;;;9.57;3.60;;;12.90;99.90;;;;;;4147351;28;20041;-61
2024/02/15 02:05:17;;;;;;;8.90;3.83;;;12.90;99.90;;;;;;4145973;28;20489;-61
2024/02/15 02:07:18;;;;;;;6.00;3.40;;;12.90;99.90;;;;;;4146606;28;20073;-60
2024/02/15 02:09:18;;;;;;;8.55;3.70;;;12.90;99.90;;;;;;4146001;28;20038;-61
2024/02/15 02:11:19;;;;;;;12.05;4.32;;;12.90;99.90;;;;;;4150634;28;20707;-60
2024/02/15 02:13:20;;;;;;;10.55;3.38;;;12.90;99.90;;;;;;4146608;28;20390;-60
2024/02/15 02:15:21;;;;;;;11.55;3.92;;;12.90;99.90;;;;;;4146416;28;20108;-60
2024/02/15 02:17:21;;;;;;;6.78;3.03;;;12.90;99.90;;;;;;4145110;28;20117;-60
2024/02/15 02:19:22;;;;;;;4.25;2.72;;;12.90;99.90;;;;;;4144996;28;20088;-72
2024/02/15 02:21:27;;;;;;;8.57;3.50;;;12.90;99.90;;;;;;4142789;28;20026;-68
2024/02/15 02:23:29;;;;;;;6.03;2.95;;;12.90;99.90;;;;;;4147075;28;20076;-68
2024/02/15 02:25:29;;;;;;;8.80;3.13;;;12.90;99.90;;;;;;4145299;28;20037;-68
2024/02/15 02:27:32;;;;;;;7.55;3.05;;;12.90;99.90;;;;;;4145884;28;20034;-68
2024/02/15 02:29:33;;;;;;;6.63;2.65;;;13.00;99.90;;;;;;4145339;28;20571;-68
2024/02/15 02:31:36;;;;;;;6.28;2.55;;;12.90;99.90;;;;;;4143180;28;20057;-68
2024/02/15 02:33:37;;;;;;;4.40;2.40;;;13.00;99.90;;;;;;4145394;28;20058;-67
2024/02/15 02:35:39;;;;;;;5.53;2.60;;;13.00;99.90;;;;;;4143265;28;20037;-69
2024/02/15 02:37:40;;;;;;;6.07;2.72;;;13.00;99.90;;;;;;4145792;28;20049;-68
2024/02/15 02:39:42;;;;;;;10.15;2.72;;;13.00;99.90;;;;;;4148863;28;20030;-69
2024/02/15 02:41:43;;;;;;;7.22;3.00;;;13.00;99.90;;;;;;4144247;28;20150;-68
2024/02/15 02:43:44;;;;;;;6.07;2.90;;;13.00;99.90;;;;;;4143559;28;20485;-68
2024/02/15 02:45:47;;;;;;;6.82;2.70;;;13.00;99.90;;;;;;4148994;28;20414;-68
2024/02/15 02:47:52;;;;;;;8.00;2.63;;;13.00;99.90;;;;;;4141656;28;20030;-68
2024/02/15 02:49:52;;;;;;;7.00;2.58;;;13.00;99.90;;;;;;4136312;28;20033;-72
2024/02/15 02:51:53;;;;;;;7.07;2.75;;;13.00;99.90;;;;;;4142370;28;20026;-72
2024/02/15 02:53:53;;;;;;;8.20;3.15;;;13.00;99.90;;;;;;4140709;28;20509;-72
2024/02/15 02:55:56;;;;;;;7.82;2.70;;;13.00;99.90;;;;;;4141802;28;20136;-72
2024/02/15 02:57:57;;;;;;;8.00;2.47;;;13.00;99.90;;;;;;4140943;28;20037;-72
2024/02/15 02:59:57;;;;;;;4.95;2.17;;;13.00;99.90;;;;;;4140966;28;20699;-72
2024/02/15 03:01:58;;;;;;;6.25;2.28;;;13.00;99.90;;;;;;4139900;28;20042;-72
2024/02/15 03:03:58;;;;;;;8.07;2.60;;;13.00;99.90;;;;;;4146883;28;20038;-72
2024/02/15 03:05:59;;;;;;;8.30;2.50;;;13.00;99.90;;;;;;4145706;28;20054;-72
2024/02/15 03:08:00;;;;;;;5.68;2.72;;;13.00;99.90;;;;;;4145277;28;20092;-72
2024/02/15 03:10:04;;;;;;;7.28;2.60;;;13.00;99.90;;;;;;4144253;28;20506;-72
2024/02/15 03:12:05;;;;;;;8.98;2.88;;;13.00;99.90;;;;;;4142900;28;20498;-72
2024/02/15 03:14:05;;;;;;;9.15;2.58;;;13.00;99.90;;;;;;4148003;28;20054;-72
2024/02/15 03:16:06;;;;;;;7.20;2.40;;;13.00;99.90;;;;;;4148815;28;20038;-72
2024/02/15 03:18:06;;;;;;;5.03;2.25;;;13.00;99.90;;;;;;4148190;28;20044;-72
2024/02/15 03:20:19;;;;;;;9.77;2.75;;;13.00;99.90;;;;;;4141468;28;20427;-69
2024/02/15 03:22:20;;;;;;;;;;;13.00;99.90;;;;;;4144335;28;20022;-72
2024/02/15 03:24:21;;;;;;;3.15;2.03;;;13.00;99.90;;;;;;4144808;28;19913;-72
2024/02/15 03:26:38;;;;;;;8.07;2.33;;;13.00;99.90;;;;;;4147842;28;20387;-72
2024/02/15 03:28:38;;;;;;;7.80;2.65;;;13.00;99.90;;;;;;4149010;28;20124;-72
2024/02/15 03:30:39;;;;;;;9.25;2.53;;;13.00;99.90;;;;;;4143805;28;20041;-61
2024/02/15 03:32:40;;;;;;;6.95;2.20;;;13.00;99.90;;;;;;4146086;28;20030;-61
2024/02/15 03:34:42;;;;;;;8.82;2.58;;;13.00;99.90;;;;;;4144367;28;20424;-61
2024/02/15 03:36:43;;;;;;;9.37;3.03;;;13.00;99.90;;;;;;4125840;28;20076;-61
2024/02/15 03:38:44;;;;;;;5.88;2.50;;;13.00;99.90;;;;;;4146372;28;20114;-61
2024/02/15 03:40:45;;;;;;;3.53;2.17;;;13.00;99.90;;;;;;4145901;28;20061;-61
2024/02/15 03:42:52;;;;;;;3.95;1.88;;;13.00;99.90;;;;;;4144766;28;20085;-64
2024/02/15 03:44:54;;;;;;;3.85;1.77;;;13.00;99.90;;;;;;4147659;28;20121;-61
2024/02/15 03:46:55;;;;;;;4.97;1.92;;;13.10;99.90;;;;;;4144004;28;20049;-61
2024/02/15 03:48:58;;;;;;;4.45;2.10;;;13.00;99.90;;;;;;4147250;28;20034;-61
2024/02/15 03:50:59;;;;;;;7.63;2.15;;;13.10;99.90;;;;;;4142069;28;20037;-61
2024/02/15 03:53:00;;;;;;;5.25;2.38;;;13.10;99.90;;;;;;4147602;28;20042;-61
2024/02/15 03:55:02;;;;;;;5.90;2.13;;;13.10;99.90;;;;;;4140737;28;20522;-61
2024/02/15 03:57:03;;;;;;;4.32;2.15;;;13.10;99.90;;;;;;4148253;28;20125;-61
2024/02/15 03:59:04;;;;;;;4.70;2.30;;;13.10;99.90;;;;;;4142735;28;20038;-61
2024/02/15 04:01:06;;;;;;;6.95;2.35;;;13.00;99.90;;;;;;4141638;28;20464;-67
2024/02/15 04:03:07;;;;;;;4.60;2.07;;;13.10;99.90;;;;;;4142735;28;20505;-67
2024/02/15 04:05:09;;;;;;;7.40;2.22;;;13.10;99.90;;;;;;4143478;28;20042;-68
2024/02/15 04:07:11;;;;;;;8.25;2.38;;;13.00;99.90;;;;;;4122583;28;20439;-67
2024/02/15 04:09:12;;;;;;;6.63;2.20;;;13.00;99.90;;;;;;4144283;28;20030;-67
2024/02/15 04:11:14;;;;;;;7.93;2.40;;;13.00;99.90;;;;;;4140687;28;20398;-67
2024/02/15 04:13:14;;;;;;;7.90;2.05;;;13.00;99.90;;;;;;4144752;28;20034;-67
2024/02/15 04:15:16;;;;;;;3.85;2.10;;;13.00;99.90;;;;;;4142274;28;20395;-67
2024/02/15 04:17:21;;;;;;;8.45;2.55;;;13.00;99.90;;;;;;4145814;28;20040;-67
2024/02/15 04:19:21;;;;;;;8.05;2.38;;;13.00;99.90;;;;;;4142121;28;20026;-67
2024/02/15 04:21:22;;;;;;;7.43;2.35;;;13.00;99.90;;;;;;4142694;28;20085;-67
2024/02/15 04:23:23;;;;;;;6.78;2.30;;;13.00;99.90;;;;;;4147840;28;20068;-67
2024/02/15 04:25:27;;;;;;;5.63;2.50;;;13.00;99.90;;;;;;4143053;28;20497;-66
2024/02/15 04:27:28;;;;;;;9.80;2.85;;;13.00;99.90;;;;;;4144089;28;20053;-67
2024/02/15 04:29:28;;;;;;;10.43;2.55;;;13.00;99.90;;;;;;4144411;28;20034;-67
2024/02/15 04:31:29;;;;;;;5.65;2.15;;;13.00;99.90;;;;;;4142179;28;20037;-67
2024/02/15 04:33:30;;;;;;;7.07;2.45;;;13.00;99.90;;;;;;4144822;28;20045;-67
2024/02/15 04:35:30;;;;;;;4.55;2.03;;;13.00;99.90;;;;;;4141400;28;20048;-67
2024/02/15 04:37:32;;;;;;;5.68;2.10;;;13.00;99.90;;;;;;4142309;28;20042;-67
2024/02/15 04:39:33;;;;;;;4.55;2.05;;;13.00;99.90;;;;;;4146654;28;20513;-72
2024/02/15 04:41:34;;;;;;;3.70;1.70;;;13.00;99.90;;;;;;4143973;28;20041;-67
2024/02/15 04:43:36;;;;;;;4.18;1.73;;;13.00;99.90;;;;;;4144309;28;20041;-67
2024/02/15 04:45:37;;;;;;;4.72;2.08;;;13.00;99.90;;;;;;4145101;28;20038;-66
2024/02/15 04:47:37;;;;;;;4.88;1.88;;;13.00;99.90;;;;;;4148012;28;20029;-67
2024/02/15 04:49:38;;;;;;;4.40;2.00;;;13.00;99.90;;;;;;4143085;28;20034;-67
2024/02/15 04:51:40;;;;;;;5.68;2.00;;;13.00;99.90;;;;;;4140801;28;20449;-67
2024/02/15 04:53:41;;;;;;;6.10;1.90;;;13.00;99.90;;;;;;4144007;28;20136;-67
2024/02/15 04:55:42;;;;;;;4.32;1.65;;;13.10;99.90;;;;;;4149224;28;20038;-67
2024/02/15 04:57:42;;;;;;;4.00;1.80;;;13.00;99.90;;;;;;4144930;28;20380;-67
2024/02/15 04:59:46;;;;;;;2.13;1.45;;;13.00;99.90;;;;;;4145760;28;20037;-67
2024/02/15 05:01:49;;;;;;;5.15;1.90;;;13.00;99.90;;;;;;4141193;28;20471;-66
2024/02/15 05:03:50;;;;;;;3.67;1.80;;;13.00;99.90;;;;;;4143444;28;20161;-67
2024/02/15 05:05:50;;;;;;;8.13;1.98;;;13.00;99.90;;;;;;4143636;28;20467;-67
2024/02/15 05:07:51;;;;;;;4.53;1.90;;;13.00;99.90;;;;;;4141058;28;20076;-67
2024/02/15 05:09:54;;;;;;;4.32;1.60;;;13.00;99.90;;;;;;4144992;28;20038;-67
2024/02/15 05:11:55;;;;;;;4.25;1.83;;;13.00;99.90;;;;;;4142898;28;20064;-67
2024/02/15 05:13:55;;;;;;;3.17;1.45;;;13.00;99.90;;;;;;4142566;28;20434;-67
2024/02/15 05:15:56;;;;;;;5.43;2.15;;;13.00;99.90;;;;;;4141844;28;20121;-67
2024/02/15 05:17:56;;;;;;;7.43;2.17;;;13.00;99.90;;;;;;4139237;28;20529;-67
2024/02/15 05:20:00;;;;;;;3.13;1.38;;;13.00;99.90;;;;;;4140296;28;20030;-67
2024/02/15 05:22:00;;;;;;;7.50;1.85;;;13.00;99.90;;;;;;4139578;28;20443;-67
2024/02/15 05:24:02;;;;;;;7.18;1.80;;;13.00;99.90;;;;;;4146397;28;20045;-67
2024/02/15 05:26:03;;;;;;;3.70;1.60;;;13.00;99.90;;;;;;4138761;28;20125;-67
2024/02/15 05:28:06;;;;;;;3.03;1.38;;;13.00;99.90;;;;;;4145762;28;20426;-67
2024/02/15 05:30:08;;;;;;;4.50;1.88;;;13.00;99.90;;;;;;4139297;28;20948;-67
2024/02/15 05:32:09;;;;;;;3.40;1.40;;;13.00;99.90;;;;;;4139972;28;20026;-67
2024/02/15 05:34:13;;;;;;;4.55;2.10;;;13.00;99.90;;;;;;4140060;28;20073;-67
2024/02/15 05:36:15;;;;;;;4.22;1.67;;;13.00;99.90;;;;;;4138372;28;20034;-67
2024/02/15 05:38:17;;;;;;;5.43;1.75;;;13.00;99.90;;;;;;4140606;28;20037;-67
2024/02/15 05:40:19;;;;;;;3.13;1.52;;;13.00;99.90;;;;;;4143900;28;20037;-67
2024/02/15 05:42:19;;;;;;;4.78;1.73;;;13.00;99.90;;;;;;4140056;28;20048;-67
2024/02/15 05:44:20;;;;;;;4.65;2.00;;;13.00;99.90;;;;;;4144521;28;20158;-67
2024/02/15 05:46:21;;;;;;;7.18;1.65;;;13.00;99.90;;;;;;4141790;28;20030;-67
2024/02/15 05:48:21;;;;;;;4.93;1.63;;;13.00;99.90;;;;;;4141984;28;20108;-67
2024/02/15 05:50:23;;;;;;;6.07;1.92;;;13.00;99.90;;;;;;4142074;28;20042;-70
2024/02/15 05:52:24;;;;;;;3.90;1.63;;;13.00;99.90;;;;;;4144089;28;20038;-71
2024/02/15 05:54:25;;;;;;;4.10;1.60;;;13.00;99.90;;;;;;4145632;28;20116;-71
2024/02/15 05:56:26;;;;;;;3.22;1.60;;;13.00;99.90;;;;;;4142813;28;20061;-71
2024/02/15 05:58:26;;;;;;;4.43;1.77;;;13.00;99.90;;;;;;4143357;28;20042;-71
2024/02/15 06:00:30;;;;;;;5.43;1.90;;;13.00;99.90;;;;;;4144993;28;20045;-71
2024/02/15 06:02:32;;;;;;;3.80;1.63;;;13.00;99.90;;;;;;4144911;28;20038;-71
2024/02/15 06:04:33;;;;;;;4.55;1.77;;;13.00;99.90;;;;;;4142480;28;20033;-71
2024/02/15 06:06:34;;;;;;;6.75;2.08;;;13.00;99.90;;;;;;4135758;28;20125;-71
2024/02/15 06:08:35;;;;;;;3.92;1.55;;;13.00;99.90;;;;;;4136761;28;20026;-71
2024/02/15 06:10:36;;;;;;;3.47;1.42;;;13.00;99.90;;;;;;4136719;28;20045;-71
2024/02/15 06:12:37;;;;;;;7.70;1.80;;;13.00;99.90;;;;;;4139716;28;20037;-71
2024/02/15 06:14:37;;;;;;;4.78;1.88;;;12.90;99.90;;;;;;4139150;28;20108;-71
2024/02/15 06:16:44;;;;;;;2.70;1.40;;;12.90;99.90;;;;;;4138780;28;20121;-71
2024/02/15 06:18:47;;;;;;;3.67;1.70;;;12.90;99.90;;;;;;4140829;28;20042;-71
2024/02/15 06:20:51;;;;;;;4.03;2.03;;;12.90;99.90;;;;;;4139078;28;20042;-70
2024/02/15 06:22:52;;;;;;;3.40;1.50;;;12.90;99.90;;;;;;4136502;28;20038;-71
2024/02/15 06:24:52;;;;;;;2.60;1.50;;;12.90;99.90;;;;;;4138547;28;20049;-71
2024/02/15 06:26:59;;;;;;;2.78;1.50;;;12.90;99.90;;;;;;4133693;28;20077;-71
2024/02/15 06:40:36;;;;;;;3.42;1.75;;;12.90;99.90;;;;;;4134982;28;20038;-67
2024/02/15 06:42:37;;;;;;;4.03;1.48;;;12.90;99.90;;;;;;4138751;28;20049;-67
2024/02/15 06:44:40;;;;;;;3.75;1.73;;;12.90;99.90;;;;;;4138820;28;20050;-67
2024/02/15 06:46:41;;;;;;;3.50;1.48;;;12.90;99.90;;;;;;4136081;28;20813;-67
2024/02/15 06:48:45;;;;;;;3.90;1.10;;;12.90;99.90;;;;;;4141045;28;20128;-67
2024/02/15 06:50:48;;;;;;;3.83;1.60;;;12.90;99.90;;;;;;4138965;28;20096;-67
2024/02/15 06:52:51;;;;;;;4.15;1.73;;;12.90;99.90;;;;;;4136941;28;20600;-67
2024/02/15 06:54:52;;;;;;;3.10;1.10;;;12.90;99.90;;;;;;4142101;28;20585;-67
2024/02/15 06:56:54;;;;;;;4.22;1.80;;;12.80;99.90;;;;;;4137694;28;20371;-67
2024/02/15 06:58:55;;;;;;;4.68;1.42;;;12.90;99.90;;;;;;4139559;28;20045;-67
2024/02/15 07:00:56;;;;;;;2.63;1.50;;;12.90;99.90;;;;;;4139764;28;20100;-61
2024/02/15 07:02:56;;;;;;;3.15;1.50;;;12.80;99.90;;;;;;4139005;28;20037;-60
2024/02/15 07:04:57;;;;;;;3.90;1.58;;;12.80;99.90;;;;;;4139623;28;20050;-61
2024/02/15 07:06:59;;;;;;;5.13;2.08;;;12.80;99.90;;;;;;4137870;28;20038;-60
2024/02/15 07:09:00;;;;;;;7.15;1.95;;;12.80;99.90;;;;;;4138692;28;20464;-61
2024/02/15 07:11:02;;;;;;;6.25;1.70;;;12.80;99.90;;;;;;4138627;28;20714;-60
2024/02/15 07:13:03;;;;;;;4.82;1.92;;;12.80;99.90;;;;;;4138261;28;20410;-60
2024/02/15 07:15:08;;;;;;;4.85;1.75;;;12.70;99.90;;;;;;4121491;28;20053;-60
2024/02/15 07:17:10;;;;;;;5.95;1.58;;;12.70;99.90;;;;;;4139657;28;20133;-60
2024/02/15 07:19:11;;;;;;;3.92;1.73;;;12.70;99.90;;;;;;4138649;28;20100;-60
2024/02/15 07:21:13;;;;;;;2.60;1.65;;;12.70;99.90;;;;;;4135230;28;20042;-64
2024/02/15 07:23:14;;;;;;;5.85;2.20;;;12.70;99.90;;;;;;4135753;28;20487;-61
2024/02/15 07:25:15;;;;;;;4.57;1.60;;;12.70;99.90;;;;;;4137915;28;20125;-60
2024/02/15 07:27:17;;;;;;;4.22;1.83;;;12.70;99.90;;;;;;4139048;28;20041;-61
2024/02/15 07:29:18;;;;;;;4.75;1.83;;;12.70;99.90;;;;;;4136065;28;20034;-70
2024/02/15 07:31:21;;;;;;;7.00;2.00;;;12.60;99.90;;;;;;4138673;28;20042;-70
2024/02/15 07:33:23;;;;;;;4.68;1.63;;;12.60;99.90;;;;;;4139325;28;20042;-70
2024/02/15 07:35:25;;;;;;;4.95;1.80;;;12.60;99.90;;;;;;4137942;28;20121;-70
2024/02/15 07:37:26;;;;;;;3.63;1.53;;;12.60;99.90;;;;;;4139340;28;20045;-70
2024/02/15 07:39:27;;;;;;;5.80;2.08;;;12.60;99.90;;;;;;4136894;28;20042;-70
2024/02/15 07:41:28;;;;;;;3.97;1.73;;;12.60;99.90;;;;;;4131457;28;20410;-70
2024/02/15 07:43:29;;;;;;;3.65;1.73;;;12.60;99.90;;;;;;4137473;28;20277;-71
2024/02/15 07:45:29;;;;;;;7.50;1.70;;;12.60;99.90;;;;;;4139147;28;20038;-70
2024/02/15 07:47:30;;;;;;;4.10;1.83;;;12.70;99.90;;;;;;4137234;28;20037;-69
2024/02/15 07:49:31;;;;;;;5.18;1.67;;;12.70;99.90;;;;;;4140188;28;20037;-70
2024/02/15 07:51:31;;;;;;;4.43;1.70;;;12.70;99.90;;;;;;4136148;28;20355;-71
2024/02/15 07:53:32;;;;;;;3.95;1.63;;;12.70;99.90;;;;;;4138442;28;20514;-71
2024/02/15 07:55:33;;;;;;;7.05;2.10;;;12.70;99.90;;;;;;4138472;28;20396;-70
2024/02/15 07:57:35;;;;;;;5.18;1.42;;;12.70;99.90;;;;;;4133943;28;20045;-70
2024/02/15 07:59:35;;;;;;;4.45;1.83;;;12.70;99.90;;;;;;4137905;28;20489;-70
2024/02/15 08:01:36;;;;;;;4.47;1.38;;;12.70;99.90;;;;;;4139484;28;20038;-70
2024/02/15 08:03:36;;;;;;;4.05;1.38;;;12.80;99.90;;;;;;4139998;28;20034;-70
2024/02/15 08:05:37;;;;;;;4.25;1.85;;;12.70;99.90;;;;;;4135070;28;20124;-70
2024/02/15 08:07:44;;;;;;;4.90;1.83;;;12.70;99.90;;;;;;4140671;28;20029;-70
2024/02/15 08:09:44;;;;;;;2.55;1.42;;;12.80;99.90;;;;;;4141394;28;20062;-68
2024/02/15 08:11:45;;;;;;;3.47;1.80;;;12.70;99.90;;;;;;4136831;28;20030;-61
2024/02/15 08:13:50;;;;;;;5.78;1.88;;;12.80;99.90;;;;;;4140556;28;20046;-60
2024/02/15 08:15:52;;;;;;;5.55;1.80;;;12.80;99.90;;;;;;4139709;28;20108;-60
2024/02/15 08:17:54;;;;;;;5.30;1.90;;;12.80;99.90;;;;;;4141200;28;20053;-60
2024/02/15 08:19:55;;;;;;;4.18;2.00;;;12.70;99.90;;;;;;4139666;28;20786;-60
2024/02/15 08:21:56;;;;;;;4.28;1.70;;;12.70;99.90;;;;;;4139353;28;20113;-60
2024/02/15 08:23:56;;;;;;;4.57;2.10;;;12.80;99.90;;;;;;4143052;28;20500;-61
2024/02/15 08:25:57;;;;;;;4.50;1.80;;;12.80;99.90;;;;;;4138712;28;20033;-61
2024/02/15 08:27:58;;;;;;;5.40;1.80;;;12.70;99.90;;;;;;4140611;28;20073;-60
2024/02/15 08:29:58;;;;;;;5.70;2.03;;;12.70;99.90;;;;;;4141500;28;20038;-60
2024/02/15 08:31:59;;;;;;;6.22;2.10;;;12.70;99.90;;;;;;4140016;28;20049;-61
2024/02/15 08:34:01;;;;;;;3.95;1.65;;;12.70;99.90;;;;;;4142377;28;20887;-60
2024/02/15 08:36:02;;;;;;;5.97;1.90;;;12.60;99.90;;;;;;4139828;28;20041;-61
2024/02/15 08:38:05;;;;;;;7.57;2.38;;;12.70;99.90;;;;;;4139252;28;20462;-60
2024/02/15 08:40:10;;;;;;;7.30;2.30;;;12.70;99.90;;;;;;4139686;28;20162;-71
2024/02/15 08:42:11;;;;;;;4.80;2.17;;;12.70;99.90;;;;;;4140071;28;20061;-71
2024/02/15 08:44:15;;;;;;;6.53;2.17;;;12.70;99.90;;;;;;4140675;28;20038;-71
2024/02/15 08:46:16;;;;;;;5.53;2.22;;;12.60;99.90;;;;;;4141580;28;20038;-70
2024/02/15 08:48:16;;;;;;;4.88;1.77;;;12.60;99.90;;;;;;4140013;28;20099;-69
2024/02/15 08:50:17;;;;;;;6.10;2.63;;;12.60;99.90;;;;;;4137850;28;20034;-69
2024/02/15 08:52:18;;;;;;;10.07;2.40;;;12.60;99.90;;;;;;4141203;28;20159;-69
2024/02/15 08:54:19;;;;;;;7.07;2.17;;;12.60;99.90;;;;;;4140316;28;20034;-70
2024/02/15 08:56:20;;;;;;;8.32;2.35;;;12.60;99.90;;;;;;4140751;28;20176;-70
2024/02/15 08:58:23;;;;;;;3.58;1.60;;;12.60;99.90;;;;;;4139602;28;20105;-70
2024/02/15 09:00:26;;;;;;;6.28;2.05;;;12.60;99.90;;;;;;4139286;28;20141;-70
2024/02/15 09:02:27;;;;;;;3.42;1.52;;;12.60;99.90;;;;;;4138760;28;20117;-69
2024/02/15 09:04:27;;;;;;;6.47;2.50;;;12.60;99.90;;;;;;4138661;28;20053;-70
2024/02/15 09:06:28;;;;;;;5.88;1.85;;;12.60;99.90;;;;;;4119963;28;20042;-70
2024/02/15 09:08:30;;;;;;;4.03;2.10;;;12.70;99.90;;;;;;4135016;28;20037;-70
2024/02/15 09:10:30;;;;;;;5.30;2.28;;;12.60;99.90;;;;;;4138804;28;20802;-70
2024/02/15 09:12:31;;;;;;;4.00;2.17;;;12.60;99.90;;;;;;4139336;28;20038;-70
2024/02/15 09:14:33;;;;;;;4.15;1.95;;;12.60;99.90;;;;;;4140895;28;20038;-71
2024/02/15 09:16:35;;;;;;;4.05;1.90;;;12.60;99.90;;;;;;4137896;28;20038;-70
2024/02/15 09:18:36;;;;;;;8.95;2.55;;;12.60;99.90;;;;;;4140015;28;20084;-70
2024/02/15 09:20:38;;;;;;;7.28;2.63;;;12.70;99.90;;;;;;4140296;28;20046;-66
2024/02/15 09:22:38;;;;;;;7.03;2.10;;;12.70;99.90;;;;;;4139841;28;20037;-66
2024/02/15 09:24:39;;;;;;;5.00;2.35;;;12.70;99.90;;;;;;4138439;28;20045;-66
2024/02/15 09:26:39;;;;;;;9.05;2.47;;;12.70;99.90;;;;;;4138420;28;20128;-66
2024/02/15 09:28:40;;;;;;;6.57;2.63;;;12.70;99.90;;;;;;4137420;28;20395;-66
2024/02/15 09:30:41;;;;;;;8.10;2.20;;;12.70;99.90;;;;;;4133652;28;20041;-66
2024/02/15 09:32:43;;;;;;;7.10;2.78;;;12.70;99.90;;;;;;4138836;28;20160;-66
2024/02/15 09:34:43;;;;;;;5.70;2.80;;;12.80;99.90;;;;;;4140270;28;20534;-66
2024/02/15 09:36:45;;;;;;;9.27;2.53;;;12.80;99.90;;;;;;4140355;28;20045;-66
2024/02/15 09:38:46;;;;;;;7.70;3.17;;;12.80;99.90;;;;;;4138085;28;20069;-67
2024/02/15 09:40:49;;;;;;;8.18;3.33;;;12.80;99.90;;;;;;4133030;28;20038;-66
2024/02/15 09:42:51;;;;;;;6.80;2.50;;;12.80;99.90;;;;;;4140604;28;20034;-67
2024/02/15 09:44:51;;;;;;;7.45;2.92;;;12.80;99.90;;;;;;4139399;28;20276;-66
2024/02/15 09:47:04;;;;;;;5.30;2.85;;;12.80;99.90;;;;;;4139450;28;20057;-66
2024/02/15 09:49:07;;;;;;;;;;;12.90;99.90;;;;;;4136524;28;20501;-66
2024/02/15 09:51:12;;;;;;;6.00;3.00;;;12.90;99.90;;;;;;4138415;28;19924;-70
2024/02/15 09:53:14;;;;;;;4.85;2.53;;;12.90;99.90;;;;;;4138820;28;20277;-70
2024/02/15 09:55:16;;;;;;;8.75;2.40;;;12.90;99.90;;;;;;4138403;28;20054;-70
2024/02/15 09:57:18;;;;;;;8.17;2.40;;;13.00;99.90;;;;;;4138391;28;20092;-69
2024/02/15 09:59:19;;;;;;;5.20;2.60;;;13.00;99.90;;;;;;4139376;28;20030;-70
2024/02/15 10:01:22;;;;;;;7.30;2.92;;;13.00;99.90;;;;;;4140227;28;20562;-70
2024/02/15 10:03:26;;;;;;;9.13;2.80;;;13.00;99.90;;;;;;4137321;28;20483;-70
2024/02/15 10:05:27;;;;;;;5.03;2.50;;;13.00;99.90;;;;;;4137924;28;20068;-70
2024/02/15 10:07:27;;;;;;;5.75;2.65;;;13.10;99.90;;;;;;4142300;28;20042;-69
2024/02/15 10:09:30;;;;;;;4.55;2.35;;;13.10;99.90;;;;;;4139224;28;20049;-70
2024/02/15 10:11:30;;;;;;;7.25;2.70;;;13.10;99.90;;;;;;4138093;28;20246;-70
2024/02/15 10:13:31;;;;;;;6.35;2.45;;;13.10;99.90;;;;;;4138548;28;20038;-69
2024/02/15 10:15:40;;;;;;;5.88;2.35;;;13.10;99.90;;;;;;4131905;28;20063;-70
2024/02/15 10:17:41;;;;;;;5.35;2.20;;;13.10;99.90;;;;;;4138524;28;20488;-70
2024/02/15 10:19:43;;;;;;;9.23;2.30;;;13.10;99.90;;;;;;4121528;28;20034;-70
2024/02/15 10:21:44;;;;;;;5.43;2.28;;;13.20;99.90;;;;;;4143092;28;20084;-70
2024/02/15 10:23:45;;;;;;;5.07;1.95;;;13.20;99.90;;;;;;4143180;28;20512;-70
2024/02/15 10:25:46;;;;;;;10.43;3.03;;;13.20;99.90;;;;;;4141661;28;20398;-70
2024/02/15 10:27:46;;;;;;;6.35;2.10;;;13.30;99.90;;;;;;4141505;28;20129;-70
2024/02/15 10:29:48;;;;;;;7.40;2.17;;;13.30;99.90;;;;;;4142691;28;20092;-69
2024/02/15 10:31:54;;;;;;;5.32;2.25;;;13.30;99.90;;;;;;4133396;28;20383;-64
2024/02/15 10:34:04;;;;;;;15.55;3.25;;;13.30;99.90;;;;;;4124129;28;20078;-64
2024/02/15 10:36:11;;;;;;;8.32;2.30;;;13.40;99.90;;;;;;4133513;28;20046;-65
2024/02/15 10:38:13;;;;;;;5.97;2.20;;;13.40;99.90;;;;;;4141292;28;20479;-64
2024/02/15 10:40:17;;;;;;;11.15;2.35;;;13.40;99.90;;;;;;4139145;28;20557;-64
2024/02/15 10:42:18;;;;;;;5.10;2.17;;;13.40;99.90;;;;;;4141159;28;20725;-66
2024/02/15 10:44:23;;;;;;;6.00;2.53;;;13.40;99.90;;;;;;4142612;28;20040;-65